createdAt,value
2024-04-19T00:00:18.989Z,83.16
2024-04-19T00:06:05.682Z,83.19
2024-04-19T00:11:32.535Z,84.01
2024-04-19T00:16:58.586Z,83.90
2024-04-19T00:22:24.184Z,84.33
2024-04-19T00:27:48.001Z,84.39
2024-04-19T00:33:14.608Z,84.79
2024-04-19T00:38:40.939Z,85.14
2024-04-19T00:43:56.864Z,85.44
2024-04-19T00:49:22.848Z,85.66
2024-04-19T00:54:48.682Z,86.26
2024-04-19T01:00:14.477Z,86.62
2024-04-19T01:05:40.106Z,86.99
2024-04-19T01:11:06.155Z,87.20
2024-04-19T01:16:31.625Z,87.35
2024-04-19T01:21:56.974Z,87.59
2024-04-19T01:27:22.281Z,87.59
2024-04-19T01:32:47.700Z,87.70
2024-04-19T01:38:13.104Z,87.75
2024-04-19T01:43:38.335Z,87.34
2024-04-19T01:49:03.687Z,87.47
2024-04-19T01:54:28.981Z,87.57
2024-04-19T01:59:54.356Z,87.66
2024-04-19T02:05:19.599Z,87.68
2024-04-19T02:10:44.850Z,87.78
2024-04-19T02:16:10.160Z,87.66
2024-04-19T02:21:35.493Z,87.90
2024-04-19T02:27:00.803Z,88.14
2024-04-19T02:32:26.770Z,88.46
2024-04-19T02:37:52.256Z,88.91
2024-04-19T02:43:17.684Z,89.55
2024-04-19T02:48:43.093Z,89.77
2024-04-19T02:54:08.571Z,90.59
2024-04-19T02:59:34.089Z,90.63
2024-04-19T03:05:00.035Z,90.76
2024-04-19T03:10:25.940Z,91.04
2024-04-19T03:15:51.315Z,91.15
2024-04-19T03:21:21.227Z,91.35
2024-04-19T03:26:46.917Z,91.65
2024-04-19T03:32:12.251Z,91.83
2024-04-19T03:37:37.565Z,92.03
2024-04-19T03:43:06.534Z,92.33
2024-04-19T03:48:32.631Z,92.38
2024-04-19T03:53:58.027Z,92.73
2024-04-19T03:59:16.461Z,92.61
2024-04-19T04:04:41.751Z,92.35
2024-04-19T04:10:07.070Z,92.18
2024-04-19T04:15:32.483Z,91.99
2024-04-19T04:20:57.856Z,91.89
2024-04-19T04:26:23.282Z,91.68
2024-04-19T04:31:48.582Z,92.00
2024-04-19T04:37:13.913Z,91.68
2024-04-19T04:42:32.013Z,91.43
2024-04-19T04:47:57.495Z,91.40
2024-04-19T04:53:22.905Z,91.56
2024-04-19T04:58:48.170Z,91.61
2024-04-19T05:04:13.437Z,91.33
2024-04-19T05:09:38.820Z,91.31
2024-04-19T05:15:04.100Z,91.15
2024-04-19T05:20:30.627Z,91.14
2024-04-19T05:25:58.243Z,90.77
2024-04-19T05:31:23.644Z,90.58
2024-04-19T05:36:41.630Z,90.45
2024-04-19T05:42:06.937Z,90.32
2024-04-19T05:47:22.296Z,90.35
2024-04-19T05:52:47.589Z,90.62
2024-04-19T05:58:12.827Z,90.78
2024-04-19T06:03:38.411Z,91.31
2024-04-19T06:09:04.748Z,91.84
2024-04-19T06:14:30.035Z,92.72
2024-04-19T06:19:55.323Z,94.20
2024-04-19T06:25:20.649Z,94.37
2024-04-19T06:30:48.334Z,94.60
2024-04-19T06:36:13.651Z,95.09
2024-04-19T06:41:38.952Z,94.84
2024-04-19T06:47:04.260Z,94.50
2024-04-19T06:52:29.652Z,94.95
2024-04-19T06:57:56.066Z,94.46
2024-04-19T07:03:22.394Z,95.00
2024-04-19T07:08:48.123Z,95.28
2024-04-19T07:14:13.390Z,95.09
2024-04-19T07:19:39.007Z,95.97
2024-04-19T07:24:54.307Z,96.73
2024-04-19T07:30:19.788Z,96.66
2024-04-19T07:35:35.014Z,96.97
2024-04-19T07:41:00.483Z,97.20
2024-04-19T07:46:26.110Z,98.04
2024-04-19T07:51:51.517Z,97.51
2024-04-19T07:57:16.767Z,97.32
2024-04-19T08:02:42.046Z,96.70
2024-04-19T08:08:07.389Z,96.75
2024-04-19T08:13:32.640Z,97.06
2024-04-19T08:18:49.187Z,97.42
2024-04-19T08:24:14.621Z,97.76
2024-04-19T08:29:39.890Z,98.08
2024-04-19T08:35:07.933Z,98.32
2024-04-19T08:40:33.798Z,98.82
2024-04-19T08:46:02.910Z,99.36
2024-04-19T08:51:43.436Z,99.37
2024-04-19T08:57:15.583Z,99.55
2024-04-19T09:02:41.218Z,99.95
2024-04-19T09:08:06.641Z,100.00
2024-04-19T09:13:32.043Z,100.00
2024-04-19T09:18:57.361Z,100.00
2024-04-19T09:24:22.745Z,100.00
2024-04-19T09:29:48.355Z,100.00
2024-04-19T09:35:13.670Z,100.00
2024-04-19T09:40:39.679Z,100.00
2024-04-19T09:46:09.206Z,100.00
2024-04-19T09:51:36.561Z,100.00
2024-04-19T09:57:14.811Z,100.00
2024-04-19T10:02:43.077Z,100.00
2024-04-19T10:08:15.316Z,100.00
2024-04-19T10:13:39.641Z,100.00
2024-04-19T10:19:05.099Z,100.00
2024-04-19T10:24:43.567Z,100.00
2024-04-19T10:30:16.045Z,100.00
2024-04-19T10:35:46.181Z,100.00
2024-04-19T10:41:11.493Z,100.00
2024-04-19T10:46:37.121Z,100.00
2024-04-19T10:52:02.760Z,100.00
2024-04-19T10:57:21.790Z,100.00
2024-04-19T11:02:49.534Z,100.00
2024-04-19T11:08:06.637Z,100.00
2024-04-19T11:13:22.134Z,100.00
2024-04-19T11:18:47.602Z,100.00
2024-04-19T11:24:13.806Z,100.00
2024-04-19T11:29:39.276Z,100.00
2024-04-19T11:35:10.532Z,100.00
2024-04-19T11:40:42.792Z,100.00
2024-04-19T11:46:06.864Z,100.00
2024-04-19T11:51:32.925Z,100.00
2024-04-19T11:56:58.619Z,100.00
2024-04-19T12:02:24.068Z,100.00
2024-04-19T12:07:49.492Z,100.00
2024-04-19T12:13:58.849Z,100.00
2024-04-19T12:18:49.388Z,100.00
2024-04-19T12:24:16.050Z,100.00
2024-04-19T12:29:42.590Z,100.00
2024-04-19T12:35:08.361Z,100.00
2024-04-19T12:40:34.494Z,100.00
2024-04-19T12:46:00.007Z,100.00
2024-04-19T12:51:25.920Z,100.00
2024-04-19T12:56:51.427Z,100.00
2024-04-19T13:02:16.746Z,100.00
2024-04-19T13:07:42.072Z,100.00
2024-04-19T13:13:07.395Z,100.00
2024-04-19T13:18:32.893Z,100.00
2024-04-19T13:23:58.260Z,100.00
2024-04-19T13:29:23.500Z,100.00
2024-04-19T13:34:48.805Z,100.00
2024-04-19T13:40:14.060Z,100.00
2024-04-19T13:45:39.420Z,100.00
2024-04-19T13:51:04.776Z,100.00
2024-04-19T13:56:30.605Z,100.00
2024-04-19T14:01:56.013Z,100.00
2024-04-19T14:07:21.499Z,100.00
2024-04-19T14:12:48.040Z,100.00
2024-04-19T14:18:13.682Z,100.00
2024-04-19T14:23:38.936Z,100.00
2024-04-19T14:29:04.201Z,100.00
2024-04-19T14:34:29.511Z,100.00
2024-04-19T14:39:54.875Z,100.00
2024-04-19T14:45:20.259Z,100.00
2024-04-19T14:50:45.766Z,100.00
2024-04-19T14:56:11.239Z,100.00
2024-04-19T15:01:36.537Z,100.00
2024-04-19T15:07:02.107Z,100.00
2024-04-19T15:12:28.490Z,100.00
2024-04-19T15:17:53.910Z,100.00
2024-04-19T15:23:19.406Z,100.00
2024-04-19T15:28:44.795Z,100.00
2024-04-19T15:34:35.779Z,100.00
2024-04-19T15:39:56.381Z,100.00
2024-04-19T15:45:23.597Z,100.00
2024-04-19T15:50:48.920Z,100.00
2024-04-19T15:56:14.356Z,100.00
2024-04-19T16:01:32.132Z,100.00
2024-04-19T16:06:47.726Z,100.00
2024-04-19T16:12:13.055Z,100.00
2024-04-19T16:17:38.358Z,100.00
2024-04-19T16:23:03.622Z,100.00
2024-04-19T16:28:29.024Z,100.00
2024-04-19T16:33:54.441Z,100.00
2024-04-19T16:39:19.720Z,100.00
2024-04-19T16:44:45.203Z,100.00
2024-04-19T16:50:10.603Z,100.00
2024-04-19T16:55:35.924Z,100.00
2024-04-19T17:01:01.909Z,100.00
2024-04-19T17:06:27.729Z,100.00
2024-04-19T17:11:53.144Z,100.00
2024-04-19T17:17:18.479Z,100.00
2024-04-19T17:22:43.917Z,100.00
2024-04-19T17:28:08.176Z,100.00
2024-04-19T17:33:33.985Z,100.00
2024-04-19T17:38:59.759Z,100.00
2024-04-19T17:44:26.824Z,100.00
2024-04-19T17:49:53.927Z,100.00
2024-04-19T17:55:19.972Z,100.00
2024-04-19T18:00:45.444Z,100.00
2024-04-19T18:06:10.784Z,100.00
2024-04-19T18:11:37.183Z,100.00
2024-04-19T18:17:03.282Z,100.00
2024-04-19T18:22:28.743Z,100.00
2024-04-19T18:27:54.917Z,100.00
2024-04-19T18:33:20.231Z,100.00
2024-04-19T18:38:45.755Z,100.00
2024-04-19T18:44:03.884Z,100.00
2024-04-19T18:49:20.454Z,100.00
2024-04-19T18:54:39.074Z,100.00
2024-04-19T19:00:05.217Z,100.00
2024-04-19T19:05:32.734Z,100.00
2024-04-19T19:10:50.824Z,100.00
2024-04-19T19:16:17.327Z,100.00
2024-04-19T19:21:43.777Z,100.00
2024-04-19T19:26:59.214Z,100.00
2024-04-19T19:32:26.594Z,100.00
2024-04-19T19:37:43.290Z,100.00
2024-04-19T19:43:11.110Z,100.00
2024-04-19T19:48:27.568Z,100.00
2024-04-19T19:54:04.036Z,100.00
2024-04-19T19:59:29.616Z,100.00
2024-04-19T20:04:54.134Z,100.00
2024-04-19T20:10:18.998Z,100.00
2024-04-19T20:15:34.795Z,100.00
2024-04-19T20:20:49.879Z,100.00
2024-04-19T20:26:15.240Z,100.00
2024-04-19T20:31:40.726Z,100.00
2024-04-19T20:36:57.761Z,100.00
2024-04-19T20:42:23.531Z,100.00
2024-04-19T20:47:33.925Z,100.00
2024-04-19T20:52:59.363Z,100.00
2024-04-19T20:58:25.907Z,100.00
2024-04-19T21:03:52.039Z,100.00
2024-04-19T21:09:17.505Z,100.00
2024-04-19T21:14:36.565Z,100.00
2024-04-19T21:19:44.862Z,100.00
2024-04-19T21:25:12.720Z,100.00
2024-04-19T21:30:38.561Z,100.00
2024-04-19T21:36:03.858Z,100.00
2024-04-19T21:41:29.260Z,100.00
2024-04-19T21:46:54.581Z,100.00
2024-04-19T21:52:13.450Z,100.00
2024-04-19T21:57:21.666Z,100.00
2024-04-19T22:02:47.224Z,100.00
2024-04-19T22:08:12.651Z,100.00
2024-04-19T22:13:20.960Z,100.00
2024-04-19T22:18:46.363Z,100.00
2024-04-19T22:24:01.819Z,100.00
2024-04-19T22:29:26.012Z,100.00
2024-04-19T22:34:44.195Z,100.00
2024-04-19T22:40:12.441Z,100.00
2024-04-19T22:45:38.175Z,100.00
2024-04-19T22:50:53.605Z,100.00
2024-04-19T22:56:18.950Z,100.00
2024-04-19T23:01:44.442Z,100.00
2024-04-19T23:07:01.021Z,100.00
2024-04-19T23:12:10.015Z,100.00
2024-04-19T23:17:15.339Z,100.00
2024-04-19T23:22:40.637Z,100.00
2024-04-19T23:27:48.800Z,100.00
2024-04-19T23:33:14.252Z,100.00
2024-04-19T23:38:39.765Z,100.00
2024-04-19T23:44:05.134Z,100.00
2024-04-19T23:49:30.446Z,100.00
2024-04-19T23:54:55.706Z,100.00
